createdAt,value
2018-12-20T00:00:58.651Z,24.15
2018-12-20T00:03:27.258Z,24.15
2018-12-20T00:05:56.046Z,24.15
2018-12-20T00:08:24.740Z,24.15
2018-12-20T00:10:53.509Z,24.15
2018-12-20T00:13:22.203Z,24.14
2018-12-20T00:15:50.845Z,24.13
2018-12-20T00:18:19.507Z,24.14
2018-12-20T00:20:48.244Z,24.14
2018-12-20T00:23:16.963Z,24.12
2018-12-20T00:25:45.901Z,24.12
2018-12-20T00:28:14.581Z,24.13
2018-12-20T00:30:43.238Z,24.11
2018-12-20T00:33:12.091Z,24.11
2018-12-20T00:35:40.790Z,24.11
2018-12-20T00:38:09.538Z,24.10
2018-12-20T00:40:38.259Z,24.10
2018-12-20T00:43:06.895Z,24.10
2018-12-20T00:45:35.558Z,24.09
2018-12-20T00:48:04.288Z,24.09
2018-12-20T00:50:33.210Z,24.09
2018-12-20T00:53:01.800Z,24.09
2018-12-20T00:55:30.464Z,24.09
2018-12-20T00:57:59.180Z,24.08
2018-12-20T01:00:27.899Z,24.09
2018-12-20T01:02:57.160Z,24.08
2018-12-20T01:05:25.865Z,24.08
2018-12-20T01:07:54.600Z,24.08
2018-12-20T01:10:23.207Z,24.07
2018-12-20T01:12:51.870Z,24.06
2018-12-20T01:15:20.435Z,24.06
2018-12-20T01:17:49.053Z,24.06
2018-12-20T01:20:17.667Z,24.05
2018-12-20T01:22:46.404Z,24.05
2018-12-20T01:25:15.106Z,24.05
2018-12-20T01:27:43.969Z,24.04
2018-12-20T01:30:12.883Z,24.04
2018-12-20T01:32:41.706Z,24.03
2018-12-20T01:35:10.561Z,24.02
2018-12-20T01:37:39.423Z,24.02
2018-12-20T01:40:08.505Z,24.02
2018-12-20T01:42:37.268Z,24.01
2018-12-20T01:45:06.140Z,24.02
2018-12-20T01:47:34.857Z,24.01
2018-12-20T01:50:03.850Z,24.01
2018-12-20T01:52:32.719Z,24.01
2018-12-20T01:55:01.397Z,24.01
2018-12-20T01:57:30.223Z,24.01
2018-12-20T01:59:58.982Z,24.00
2018-12-20T02:02:27.691Z,24.00
2018-12-20T02:04:56.394Z,24.00
2018-12-20T02:07:25.393Z,24.00
2018-12-20T02:09:54.205Z,23.99
2018-12-20T02:12:22.811Z,23.98
2018-12-20T02:14:51.432Z,23.99
2018-12-20T02:17:20.057Z,23.98
2018-12-20T02:19:48.767Z,23.98
2018-12-20T02:22:17.474Z,23.98
2018-12-20T02:24:46.249Z,23.98
2018-12-20T02:27:15.252Z,23.98
2018-12-20T02:29:44.109Z,23.98
2018-12-20T02:32:12.760Z,23.98
2018-12-20T02:34:41.485Z,23.98
2018-12-20T02:37:10.103Z,23.98
2018-12-20T02:39:38.754Z,23.97
2018-12-20T02:42:07.744Z,23.97
2018-12-20T02:44:36.529Z,23.98
2018-12-20T02:47:05.276Z,23.98
2018-12-20T02:49:33.957Z,23.98
2018-12-20T02:52:02.654Z,23.98
2018-12-20T02:54:31.351Z,23.98
2018-12-20T02:57:00.151Z,23.98
2018-12-20T02:59:29.089Z,23.98
2018-12-20T03:01:57.923Z,23.97
2018-12-20T03:04:26.587Z,23.98
2018-12-20T03:06:55.483Z,23.98
2018-12-20T03:09:24.268Z,23.98
2018-12-20T03:11:52.859Z,23.98
2018-12-20T03:14:21.635Z,23.98
2018-12-20T03:16:50.442Z,23.98
2018-12-20T03:19:19.290Z,23.98
2018-12-20T03:21:48.061Z,23.98
2018-12-20T03:24:17.050Z,23.98
2018-12-20T03:26:45.867Z,23.98
2018-12-20T03:29:14.730Z,23.98
2018-12-20T03:31:43.381Z,23.98
2018-12-20T03:34:12.063Z,23.98
2018-12-20T03:36:40.944Z,23.98
2018-12-20T03:39:09.658Z,23.99
2018-12-20T03:41:38.244Z,23.99
2018-12-20T03:44:06.835Z,23.99
2018-12-20T03:46:35.613Z,24.00
2018-12-20T03:49:04.503Z,24.01
2018-12-20T03:51:33.561Z,24.01
2018-12-20T03:54:02.503Z,24.01
2018-12-20T03:56:31.381Z,24.02
2018-12-20T03:59:00.159Z,24.02
2018-12-20T04:01:28.813Z,24.04
2018-12-20T04:03:57.515Z,24.04
2018-12-20T04:06:26.298Z,24.04
2018-12-20T04:08:55.058Z,24.04
2018-12-20T04:11:23.978Z,24.04
2018-12-20T04:13:52.722Z,24.05
2018-12-20T04:16:21.455Z,24.05
2018-12-20T04:18:50.050Z,24.06
2018-12-20T04:21:18.652Z,24.05
2018-12-20T04:23:47.440Z,24.05
2018-12-20T04:26:16.158Z,24.06
2018-12-20T04:28:44.847Z,24.07
2018-12-20T04:31:13.557Z,24.07
2018-12-20T04:33:42.285Z,24.06
2018-12-20T04:36:11.205Z,24.06
2018-12-20T04:38:40.186Z,24.06
2018-12-20T04:41:08.879Z,24.07
2018-12-20T04:43:37.775Z,24.07
2018-12-20T04:46:06.746Z,24.07
2018-12-20T04:48:35.764Z,24.05
2018-12-20T04:51:04.412Z,24.06
2018-12-20T04:53:33.006Z,24.07
2018-12-20T04:56:01.718Z,24.06
2018-12-20T04:58:30.474Z,24.06
2018-12-20T05:00:59.169Z,24.07
2018-12-20T05:03:27.738Z,24.07
2018-12-20T05:05:56.396Z,24.06
2018-12-20T05:08:25.240Z,24.06
2018-12-20T05:10:53.901Z,24.06
2018-12-20T05:13:22.710Z,24.06
2018-12-20T05:15:55.964Z,24.05
2018-12-20T05:18:21.906Z,24.06
2018-12-20T05:20:50.529Z,24.06
2018-12-20T05:23:19.344Z,24.05
2018-12-20T05:25:48.060Z,24.05
2018-12-20T05:28:16.790Z,24.05
2018-12-20T05:30:45.690Z,24.04
2018-12-20T05:33:14.549Z,24.05
2018-12-20T05:35:43.105Z,24.05
2018-12-20T05:38:11.862Z,24.04
2018-12-20T05:40:40.690Z,24.04
2018-12-20T05:43:09.443Z,24.04
2018-12-20T05:45:38.061Z,24.04
2018-12-20T05:48:06.721Z,24.04
2018-12-20T05:50:35.489Z,24.04
2018-12-20T05:53:04.162Z,24.03
2018-12-20T05:55:32.817Z,24.03
2018-12-20T05:58:01.733Z,24.02
2018-12-20T06:00:30.515Z,24.03
2018-12-20T06:02:59.409Z,24.03
2018-12-20T06:05:28.275Z,24.02
2018-12-20T06:07:56.983Z,24.02
2018-12-20T06:10:25.908Z,24.03
2018-12-20T06:12:54.837Z,24.02
2018-12-20T06:15:23.661Z,24.01
2018-12-20T06:17:52.695Z,24.02
2018-12-20T06:20:21.562Z,24.02
2018-12-20T06:22:50.323Z,24.01
2018-12-20T06:25:21.323Z,24.02
2018-12-20T06:27:49.605Z,24.01
2018-12-20T06:30:18.209Z,24.01
2018-12-20T06:32:46.940Z,24.01
2018-12-20T06:35:15.508Z,24.00
2018-12-20T06:37:44.084Z,24.01
2018-12-20T06:40:12.879Z,24.00
2018-12-20T06:42:41.490Z,24.01
2018-12-20T06:45:11.034Z,24.01
2018-12-20T06:47:39.664Z,24.01
2018-12-20T06:50:08.343Z,24.00
2018-12-20T06:52:37.109Z,24.01
2018-12-20T06:55:06.022Z,24.00
2018-12-20T06:57:34.624Z,24.00
2018-12-20T07:00:03.343Z,24.00
2018-12-20T07:02:31.997Z,24.00
2018-12-20T07:05:00.570Z,24.01
2018-12-20T07:07:29.216Z,24.00
2018-12-20T07:09:57.852Z,24.00
2018-12-20T07:12:26.460Z,24.01
2018-12-20T07:14:55.044Z,24.01
2018-12-20T07:17:23.631Z,24.00
2018-12-20T07:19:52.317Z,24.00
2018-12-20T07:22:21.637Z,23.99
2018-12-20T07:24:50.420Z,24.00
2018-12-20T07:27:19.048Z,24.00
2018-12-20T07:29:47.747Z,23.99
2018-12-20T07:32:24.793Z,23.99
2018-12-20T07:34:47.965Z,23.98
2018-12-20T07:37:16.920Z,23.98
2018-12-20T07:39:45.655Z,23.98
2018-12-20T07:42:14.340Z,23.96
2018-12-20T07:44:42.947Z,23.98
2018-12-20T07:47:11.561Z,23.98
2018-12-20T07:49:40.158Z,23.96
2018-12-20T07:52:08.747Z,23.98
2018-12-20T07:54:37.412Z,23.96
2018-12-20T07:57:06.020Z,23.96
2018-12-20T07:59:34.682Z,23.96
2018-12-20T08:02:03.402Z,23.95
2018-12-20T08:06:59.525Z,23.96
2018-12-20T08:09:28.151Z,23.96
2018-12-20T08:11:56.816Z,23.98
2018-12-20T08:14:25.561Z,23.98
2018-12-20T08:16:54.277Z,23.98
2018-12-20T08:19:22.881Z,23.98
2018-12-20T08:21:51.595Z,23.98
2018-12-20T08:24:20.266Z,23.97
2018-12-20T08:26:48.870Z,23.98
2018-12-20T08:29:17.525Z,23.98
2018-12-20T08:31:46.326Z,24.00
2018-12-20T08:34:15.059Z,24.00
2018-12-20T08:36:43.708Z,24.01
2018-12-20T08:39:12.336Z,24.01
2018-12-20T08:41:40.951Z,24.01
2018-12-20T08:44:09.607Z,24.01
2018-12-20T08:46:41.352Z,24.02
2018-12-20T08:49:09.983Z,24.00
2018-12-20T08:51:38.583Z,23.99
2018-12-20T08:54:07.182Z,23.99
2018-12-20T08:56:35.822Z,24.00
2018-12-20T08:59:04.662Z,23.98
2018-12-20T09:01:33.271Z,23.98
2018-12-20T09:04:01.919Z,23.98
2018-12-20T09:06:30.579Z,23.97
2018-12-20T09:08:59.354Z,23.96
2018-12-20T09:11:27.998Z,23.97
2018-12-20T09:16:24.169Z,23.95
2018-12-20T09:18:52.803Z,23.95
2018-12-20T09:21:21.398Z,23.94
2018-12-20T09:23:50.055Z,23.94
2018-12-20T09:26:18.684Z,23.94
2018-12-20T09:28:47.383Z,23.93
2018-12-20T09:31:16.060Z,23.94
2018-12-20T09:33:44.705Z,23.93
2018-12-20T09:36:13.574Z,23.93
2018-12-20T09:38:42.149Z,23.93
2018-12-20T09:41:11.082Z,23.93
2018-12-20T09:43:39.732Z,23.91
2018-12-20T09:46:08.505Z,23.93
2018-12-20T09:48:37.177Z,23.92
2018-12-20T09:51:05.902Z,23.92
2018-12-20T09:53:34.597Z,23.93
2018-12-20T09:56:03.262Z,23.92
2018-12-20T09:58:32.418Z,23.92
2018-12-20T10:01:01.115Z,23.92
2018-12-20T10:03:29.835Z,23.92
2018-12-20T10:05:58.552Z,23.92
2018-12-20T10:08:27.250Z,23.92
2018-12-20T10:10:55.900Z,23.70
2018-12-20T10:13:24.652Z,23.92
2018-12-20T10:15:53.316Z,23.92
2018-12-20T10:18:21.930Z,23.93
2018-12-20T10:20:50.642Z,23.92
2018-12-20T10:23:19.328Z,23.93
2018-12-20T10:25:47.953Z,23.94
2018-12-20T10:28:16.688Z,23.93
2018-12-20T10:30:45.307Z,23.94
2018-12-20T10:33:13.965Z,23.95
2018-12-20T10:35:42.727Z,23.95
2018-12-20T10:40:38.973Z,23.97
2018-12-20T10:43:07.610Z,23.96
2018-12-20T10:45:36.208Z,23.98
2018-12-20T10:48:05.179Z,23.98
2018-12-20T10:50:33.806Z,23.98
2018-12-20T10:53:02.509Z,23.98
2018-12-20T10:55:31.253Z,23.99
2018-12-20T10:57:59.912Z,23.99
2018-12-20T11:00:32.787Z,24.00
2018-12-20T11:03:06.783Z,24.00
2018-12-20T11:05:40.656Z,23.99
2018-12-20T11:08:14.546Z,23.99
2018-12-20T11:10:43.244Z,24.00
2018-12-20T11:13:17.342Z,23.99
2018-12-20T11:15:46.006Z,23.99
2018-12-20T11:18:14.713Z,24.00
2018-12-20T11:20:43.313Z,23.99
2018-12-20T11:23:12.151Z,24.00
2018-12-20T11:25:40.762Z,24.01
2018-12-20T11:28:09.408Z,23.99
2018-12-20T11:30:38.056Z,24.00
2018-12-20T11:33:06.783Z,24.01
2018-12-20T11:35:35.427Z,24.01
2018-12-20T11:38:04.255Z,24.01
2018-12-20T11:40:32.907Z,24.01
2018-12-20T11:43:01.564Z,24.00
2018-12-20T11:45:30.126Z,23.99
2018-12-20T11:47:58.755Z,24.01
2018-12-20T11:50:27.378Z,23.99
2018-12-20T11:52:56.038Z,24.00
2018-12-20T11:55:24.676Z,24.00
2018-12-20T11:57:53.319Z,24.00
2018-12-20T12:00:22.093Z,24.01
2018-12-20T12:02:50.728Z,24.00
2018-12-20T12:05:19.380Z,24.00
2018-12-20T12:07:47.991Z,24.00
2018-12-20T12:10:16.692Z,24.00
2018-12-20T12:12:45.385Z,24.01
2018-12-20T12:15:14.074Z,24.00
2018-12-20T12:17:42.723Z,24.00
2018-12-20T12:20:11.488Z,24.01
2018-12-20T12:22:40.255Z,24.01
2018-12-20T12:25:09.138Z,24.01
2018-12-20T12:27:37.807Z,24.01
2018-12-20T12:30:07.897Z,24.00
2018-12-20T12:32:36.582Z,24.00
2018-12-20T12:35:05.519Z,24.00
2018-12-20T12:37:34.152Z,24.00
2018-12-20T12:40:02.955Z,24.01
2018-12-20T12:42:31.564Z,24.00
2018-12-20T12:45:00.417Z,24.01
2018-12-20T12:47:34.373Z,24.01
2018-12-20T12:50:03.079Z,24.01
2018-12-20T12:52:31.706Z,24.00
2018-12-20T12:55:00.416Z,23.99
2018-12-20T12:57:29.128Z,24.01
2018-12-20T12:59:57.763Z,24.00
2018-12-20T13:02:26.471Z,24.01
2018-12-20T13:04:55.112Z,24.01
2018-12-20T13:07:23.704Z,24.00
2018-12-20T13:09:52.386Z,24.00
2018-12-20T13:12:21.059Z,24.01
2018-12-20T13:14:49.887Z,23.99
2018-12-20T13:17:18.500Z,24.01
2018-12-20T13:19:47.095Z,24.01
2018-12-20T13:22:15.767Z,24.01
2018-12-20T13:24:44.425Z,24.00
2018-12-20T13:27:14.332Z,24.01
2018-12-20T13:29:43.039Z,24.00
2018-12-20T13:32:11.679Z,24.00
2018-12-20T13:34:40.335Z,24.00
2018-12-20T13:37:15.828Z,24.00
2018-12-20T13:39:39.622Z,24.00
2018-12-20T13:42:08.223Z,24.00
2018-12-20T13:44:36.918Z,24.00
2018-12-20T13:47:05.592Z,24.00
2018-12-20T13:49:35.260Z,24.01
2018-12-20T13:52:04.422Z,24.00
2018-12-20T13:54:33.010Z,24.00
2018-12-20T13:57:01.869Z,24.01
2018-12-20T13:59:30.616Z,24.00
2018-12-20T14:01:59.237Z,23.99
2018-12-20T14:04:27.986Z,24.00
2018-12-20T14:06:56.605Z,23.99
2018-12-20T14:09:25.271Z,24.00
2018-12-20T14:11:54.027Z,24.00
2018-12-20T14:14:22.746Z,24.00
2018-12-20T14:16:52.402Z,24.00
2018-12-20T14:19:21.136Z,24.00
2018-12-20T14:21:49.916Z,23.99
2018-12-20T14:24:18.621Z,23.98
2018-12-20T14:26:47.400Z,23.98
2018-12-20T14:29:16.269Z,23.98
2018-12-20T14:31:45.006Z,23.97
2018-12-20T14:34:14.113Z,23.98
2018-12-20T14:36:42.817Z,23.97
2018-12-20T14:39:11.556Z,23.98
2018-12-20T14:41:40.307Z,23.96
2018-12-20T14:44:09.007Z,23.96
2018-12-20T14:46:37.765Z,23.96
2018-12-20T14:49:06.473Z,23.96
2018-12-20T14:51:35.267Z,23.94
2018-12-20T14:54:04.179Z,23.95
2018-12-20T14:56:32.832Z,23.95
2018-12-20T15:01:29.160Z,23.96
2018-12-20T15:03:57.904Z,23.96
2018-12-20T15:06:26.696Z,23.95
2018-12-20T15:08:55.424Z,23.96
2018-12-20T15:13:51.774Z,23.96
2018-12-20T15:16:20.448Z,23.95
2018-12-20T15:21:16.896Z,23.95
2018-12-20T15:23:45.639Z,23.95
2018-12-20T15:28:41.995Z,23.96
2018-12-20T15:31:10.652Z,23.95
2018-12-20T15:33:39.411Z,23.95
2018-12-20T15:38:35.711Z,23.94
2018-12-20T15:41:04.543Z,23.96
2018-12-20T15:46:01.854Z,23.94
2018-12-20T15:48:30.559Z,23.94
2018-12-20T15:50:59.214Z,23.95
2018-12-20T15:55:55.734Z,23.95
2018-12-20T15:58:24.589Z,23.95
2018-12-20T16:03:21.148Z,23.94
2018-12-20T16:05:49.887Z,23.95
2018-12-20T16:08:18.518Z,23.96
2018-12-20T16:10:47.203Z,23.95
2018-12-20T16:13:15.863Z,23.96
2018-12-20T16:15:44.601Z,23.95
2018-12-20T16:18:13.336Z,23.95
2018-12-20T16:20:42.024Z,23.94
2018-12-20T16:23:10.668Z,23.96
2018-12-20T16:25:39.524Z,23.96
2018-12-20T16:28:08.169Z,23.95
2018-12-20T16:30:37.187Z,23.95
2018-12-20T16:33:05.933Z,23.95
2018-12-20T16:35:34.626Z,23.95
2018-12-20T16:38:03.366Z,23.96
2018-12-20T16:40:32.046Z,23.95
2018-12-20T16:43:00.808Z,23.97
2018-12-20T16:45:29.507Z,23.97
2018-12-20T16:47:58.303Z,23.98
2018-12-20T16:50:26.976Z,23.98
2018-12-20T16:52:55.680Z,23.98
2018-12-20T16:55:24.432Z,24.00
2018-12-20T16:57:53.107Z,24.00
2018-12-20T17:00:21.918Z,24.00
2018-12-20T17:02:50.648Z,24.01
2018-12-20T17:05:19.474Z,24.01
2018-12-20T17:07:48.194Z,24.02
2018-12-20T17:10:16.885Z,24.02
2018-12-20T17:12:45.676Z,24.02
2018-12-20T17:15:16.433Z,24.02
2018-12-20T17:17:45.404Z,24.03
2018-12-20T17:20:14.076Z,24.03
2018-12-20T17:22:42.716Z,24.03
2018-12-20T17:25:11.568Z,24.04
2018-12-20T17:27:40.255Z,24.05
2018-12-20T17:30:10.422Z,24.04
2018-12-20T17:32:39.124Z,24.04
2018-12-20T17:35:07.777Z,24.04
2018-12-20T17:37:36.435Z,24.04
2018-12-20T17:40:05.536Z,24.04
2018-12-20T17:42:34.891Z,24.05
2018-12-20T17:45:03.604Z,24.03
2018-12-20T17:47:32.406Z,24.05
2018-12-20T17:50:01.097Z,24.04
2018-12-20T17:52:29.958Z,24.04
2018-12-20T17:54:58.643Z,24.04
2018-12-20T17:57:27.375Z,24.04
2018-12-20T17:59:56.218Z,24.04
2018-12-20T18:02:24.921Z,24.04
2018-12-20T18:04:53.633Z,24.04
2018-12-20T18:07:22.464Z,24.03
2018-12-20T18:09:51.307Z,24.03
2018-12-20T18:12:20.153Z,24.04
2018-12-20T18:14:48.852Z,24.03
2018-12-20T18:17:17.612Z,24.03
2018-12-20T18:19:46.233Z,24.02
2018-12-20T18:22:14.941Z,24.03
2018-12-20T18:24:43.613Z,24.04
2018-12-20T18:27:12.277Z,24.03
2018-12-20T18:29:40.907Z,24.03
2018-12-20T18:32:09.582Z,24.03
2018-12-20T18:34:38.304Z,24.02
2018-12-20T18:37:06.954Z,24.02
2018-12-20T18:39:35.684Z,24.01
2018-12-20T18:42:04.317Z,24.02
2018-12-20T18:44:32.974Z,24.03
2018-12-20T18:47:01.689Z,24.02
2018-12-20T18:49:30.384Z,24.03
2018-12-20T18:51:59.143Z,24.02
2018-12-20T18:54:27.794Z,24.03
2018-12-20T18:56:56.453Z,24.02
2018-12-20T18:59:25.217Z,24.02
2018-12-20T19:01:53.891Z,24.02
2018-12-20T19:04:22.560Z,24.02
2018-12-20T19:06:51.174Z,24.03
2018-12-20T19:09:19.949Z,24.02
2018-12-20T19:11:48.679Z,24.02
2018-12-20T19:14:17.369Z,24.02
2018-12-20T19:16:46.256Z,24.02
2018-12-20T19:19:15.078Z,24.02
2018-12-20T19:21:43.708Z,24.02
2018-12-20T19:24:13.245Z,24.02
2018-12-20T19:26:41.951Z,24.03
2018-12-20T19:29:10.708Z,24.03
2018-12-20T19:31:39.727Z,24.03
2018-12-20T19:34:08.604Z,24.03
2018-12-20T19:36:37.371Z,24.02
2018-12-20T19:39:09.625Z,24.02
2018-12-20T19:41:38.330Z,24.02
2018-12-20T19:44:07.071Z,24.02
2018-12-20T19:46:35.703Z,24.03
2018-12-20T19:49:04.676Z,24.03
2018-12-20T19:51:33.361Z,24.02
2018-12-20T19:54:02.046Z,24.02
2018-12-20T19:56:30.707Z,24.02
2018-12-20T19:58:59.428Z,24.02
2018-12-20T20:01:28.079Z,24.02
2018-12-20T20:03:56.765Z,24.01
2018-12-20T20:06:25.453Z,24.01
2018-12-20T20:08:54.158Z,24.01
2018-12-20T20:11:22.883Z,24.01
2018-12-20T20:13:51.984Z,24.01
2018-12-20T20:16:20.623Z,24.00
2018-12-20T20:18:49.267Z,24.01
2018-12-20T20:21:17.939Z,24.00
2018-12-20T20:23:46.858Z,24.01
2018-12-20T20:26:15.577Z,24.00
2018-12-20T20:28:44.270Z,23.99
2018-12-20T20:31:13.364Z,24.00
2018-12-20T20:33:42.100Z,23.98
2018-12-20T20:36:11.858Z,23.99
2018-12-20T20:38:40.620Z,23.98
2018-12-20T20:41:09.443Z,23.98
2018-12-20T20:43:38.157Z,23.97
2018-12-20T20:46:07.168Z,23.97
2018-12-20T20:48:35.888Z,23.98
2018-12-20T20:51:04.746Z,23.96
2018-12-20T20:58:30.990Z,23.95
2018-12-20T21:03:27.276Z,23.95
2018-12-20T21:05:56.070Z,23.95
2018-12-20T21:10:52.587Z,23.95
2018-12-20T21:13:21.444Z,23.96
2018-12-20T21:15:50.186Z,23.97
2018-12-20T21:18:18.977Z,23.95
2018-12-20T21:20:47.669Z,23.95
2018-12-20T21:23:16.402Z,23.95
2018-12-20T21:25:45.126Z,23.94
2018-12-20T21:28:13.850Z,23.94
2018-12-20T21:30:42.633Z,23.95
2018-12-20T21:33:11.351Z,23.94
2018-12-20T21:35:40.194Z,23.94
2018-12-20T21:38:08.940Z,23.94
2018-12-20T21:40:37.709Z,23.94
2018-12-20T21:43:06.430Z,23.93
2018-12-20T21:45:35.187Z,23.94
2018-12-20T21:48:04.084Z,23.93
2018-12-20T21:50:38.895Z,23.95
2018-12-20T21:53:03.569Z,23.93
2018-12-20T21:55:32.304Z,23.94
2018-12-20T21:58:01.216Z,23.93
2018-12-20T22:00:29.896Z,23.93
2018-12-20T22:02:58.575Z,23.94
2018-12-20T22:05:27.438Z,23.94
2018-12-20T22:07:56.156Z,23.95
2018-12-20T22:10:24.874Z,23.94
2018-12-20T22:12:53.692Z,23.93
2018-12-20T22:15:22.355Z,23.94
2018-12-20T22:17:50.994Z,23.94
2018-12-20T22:20:19.745Z,23.94
2018-12-20T22:22:48.647Z,23.94
2018-12-20T22:25:17.366Z,23.94
2018-12-20T22:27:46.066Z,23.94
2018-12-20T22:30:14.769Z,23.94
2018-12-20T22:32:43.423Z,23.94
2018-12-20T22:35:12.238Z,23.94
2018-12-20T22:37:40.912Z,23.94
2018-12-20T22:40:09.794Z,23.95
2018-12-20T22:42:38.514Z,23.95
2018-12-20T22:45:08.716Z,23.96
2018-12-20T22:47:37.495Z,23.96
2018-12-20T22:50:08.280Z,23.96
2018-12-20T22:52:37.091Z,23.98
2018-12-20T22:55:06.303Z,23.98
2018-12-20T22:57:35.444Z,23.98
2018-12-20T23:00:05.657Z,23.98
2018-12-20T23:02:34.507Z,24.00
2018-12-20T23:05:03.341Z,24.00
2018-12-20T23:07:32.018Z,24.01
2018-12-20T23:10:00.654Z,24.01
2018-12-20T23:12:29.335Z,24.02
2018-12-20T23:14:58.087Z,24.02
2018-12-20T23:17:26.813Z,24.04
2018-12-20T23:19:55.515Z,24.04
2018-12-20T23:22:24.928Z,24.03
2018-12-20T23:24:53.606Z,24.05
2018-12-20T23:27:22.299Z,24.05
2018-12-20T23:29:50.930Z,24.05
2018-12-20T23:32:19.549Z,24.05
2018-12-20T23:34:48.205Z,24.07
2018-12-20T23:37:16.984Z,24.07
2018-12-20T23:39:45.687Z,24.08
2018-12-20T23:42:15.461Z,24.07
2018-12-20T23:44:44.174Z,24.08
2018-12-20T23:47:12.838Z,24.08
2018-12-20T23:49:41.676Z,24.07
2018-12-20T23:52:10.370Z,24.07
2018-12-20T23:54:39.002Z,24.07
2018-12-20T23:57:07.791Z,24.08
2018-12-20T23:59:36.527Z,24.06
